sensor_id;sensor_type;location;lat;lon;timestamp;P1;durP1;ratioP1;P2;durP2;ratioP2
22186;SDS011;11259;52.146;12.844;2023-07-13T00:01:58;1.40;;;1.10;;
22186;SDS011;11259;52.146;12.844;2023-07-13T00:04:24;0.88;;;0.88;;
22186;SDS011;11259;52.146;12.844;2023-07-13T00:06:49;1.38;;;1.27;;
22186;SDS011;11259;52.146;12.844;2023-07-13T00:09:15;1.08;;;0.98;;
22186;SDS011;11259;52.146;12.844;2023-07-13T00:11:43;1.60;;;1.27;;
22186;SDS011;11259;52.146;12.844;2023-07-13T00:14:09;1.30;;;1.10;;
22186;SDS011;11259;52.146;12.844;2023-07-13T00:16:35;2.05;;;1.00;;
22186;SDS011;11259;52.146;12.844;2023-07-13T00:19:02;1.40;;;1.00;;
22186;SDS011;11259;52.146;12.844;2023-07-13T00:21:27;1.98;;;1.10;;
22186;SDS011;11259;52.146;12.844;2023-07-13T00:23:53;1.27;;;1.05;;
22186;SDS011;11259;52.146;12.844;2023-07-13T00:26:18;1.33;;;1.23;;
22186;SDS011;11259;52.146;12.844;2023-07-13T00:28:45;1.55;;;1.00;;
22186;SDS011;11259;52.146;12.844;2023-07-13T00:31:10;1.20;;;1.00;;
22186;SDS011;11259;52.146;12.844;2023-07-13T00:33:36;2.10;;;1.35;;
22186;SDS011;11259;52.146;12.844;2023-07-13T00:36:02;1.05;;;1.00;;
22186;SDS011;11259;52.146;12.844;2023-07-13T00:38:28;1.50;;;1.40;;
22186;SDS011;11259;52.146;12.844;2023-07-13T00:40:54;1.23;;;1.13;;
22186;SDS011;11259;52.146;12.844;2023-07-13T00:43:20;1.50;;;1.17;;
22186;SDS011;11259;52.146;12.844;2023-07-13T00:48:37;1.30;;;1.20;;
22186;SDS011;11259;52.146;12.844;2023-07-13T00:51:03;1.00;;;0.98;;
22186;SDS011;11259;52.146;12.844;2023-07-13T00:53:29;1.13;;;0.95;;
22186;SDS011;11259;52.146;12.844;2023-07-13T00:55:56;0.75;;;0.73;;
22186;SDS011;11259;52.146;12.844;2023-07-13T00:58:22;1.40;;;0.88;;
22186;SDS011;11259;52.146;12.844;2023-07-13T01:00:48;0.88;;;0.88;;
22186;SDS011;11259;52.146;12.844;2023-07-13T01:03:15;1.60;;;1.45;;
22186;SDS011;11259;52.146;12.844;2023-07-13T01:05:40;1.40;;;1.30;;
22186;SDS011;11259;52.146;12.844;2023-07-13T01:08:06;0.90;;;0.90;;
22186;SDS011;11259;52.146;12.844;2023-07-13T01:10:32;1.30;;;1.20;;
22186;SDS011;11259;52.146;12.844;2023-07-13T01:12:58;1.33;;;1.23;;
22186;SDS011;11259;52.146;12.844;2023-07-13T01:15:36;1.60;;;1.30;;
22186;SDS011;11259;52.146;12.844;2023-07-13T01:18:03;0.85;;;0.85;;
22186;SDS011;11259;52.146;12.844;2023-07-13T01:20:30;1.23;;;1.13;;
22186;SDS011;11259;52.146;12.844;2023-07-13T01:22:57;1.23;;;1.10;;
22186;SDS011;11259;52.146;12.844;2023-07-13T01:25:22;1.05;;;0.85;;
22186;SDS011;11259;52.146;12.844;2023-07-13T01:27:47;2.67;;;1.38;;
22186;SDS011;11259;52.146;12.844;2023-07-13T01:30:13;1.20;;;1.10;;
22186;SDS011;11259;52.146;12.844;2023-07-13T01:32:38;1.55;;;1.17;;
22186;SDS011;11259;52.146;12.844;2023-07-13T01:35:04;1.10;;;1.00;;
22186;SDS011;11259;52.146;12.844;2023-07-13T01:37:29;1.02;;;0.93;;
22186;SDS011;11259;52.146;12.844;2023-07-13T01:39:56;1.17;;;1.08;;
22186;SDS011;11259;52.146;12.844;2023-07-13T01:42:21;1.83;;;1.35;;
22186;SDS011;11259;52.146;12.844;2023-07-13T01:44:47;1.15;;;1.05;;
22186;SDS011;11259;52.146;12.844;2023-07-13T01:47:12;1.33;;;1.23;;
22186;SDS011;11259;52.146;12.844;2023-07-13T01:49:38;3.90;;;2.85;;
22186;SDS011;11259;52.146;12.844;2023-07-13T01:52:03;5.07;;;3.83;;
22186;SDS011;11259;52.146;12.844;2023-07-13T01:54:29;3.90;;;2.95;;
22186;SDS011;11259;52.146;12.844;2023-07-13T01:56:56;5.45;;;3.20;;
22186;SDS011;11259;52.146;12.844;2023-07-13T01:59:21;2.78;;;2.38;;
22186;SDS011;11259;52.146;12.844;2023-07-13T02:01:46;2.72;;;2.40;;
22186;SDS011;11259;52.146;12.844;2023-07-13T02:04:12;2.03;;;1.77;;
22186;SDS011;11259;52.146;12.844;2023-07-13T02:06:37;1.42;;;1.33;;
22186;SDS011;11259;52.146;12.844;2023-07-13T02:09:02;1.40;;;1.30;;
22186;SDS011;11259;52.146;12.844;2023-07-13T02:11:28;1.25;;;1.00;;
22186;SDS011;11259;52.146;12.844;2023-07-13T02:13:54;1.17;;;1.10;;
22186;SDS011;11259;52.146;12.844;2023-07-13T02:16:20;1.25;;;1.15;;
22186;SDS011;11259;52.146;12.844;2023-07-13T02:18:45;1.60;;;1.20;;
22186;SDS011;11259;52.146;12.844;2023-07-13T02:21:10;2.58;;;1.23;;
22186;SDS011;11259;52.146;12.844;2023-07-13T02:23:35;1.05;;;1.00;;
22186;SDS011;11259;52.146;12.844;2023-07-13T02:26:02;1.20;;;1.10;;
22186;SDS011;11259;52.146;12.844;2023-07-13T02:28:28;1.38;;;1.27;;
22186;SDS011;11259;52.146;12.844;2023-07-13T02:30:55;1.50;;;1.33;;
22186;SDS011;11259;52.146;12.844;2023-07-13T02:33:20;1.88;;;0.90;;
22186;SDS011;11259;52.146;12.844;2023-07-13T02:35:46;1.00;;;1.00;;
22186;SDS011;11259;52.146;12.844;2023-07-13T02:38:11;1.20;;;0.90;;
22186;SDS011;11259;52.146;12.844;2023-07-13T02:40:36;1.08;;;1.02;;
22186;SDS011;11259;52.146;12.844;2023-07-13T02:43:02;1.10;;;1.00;;
22186;SDS011;11259;52.146;12.844;2023-07-13T02:45:27;1.40;;;1.30;;
22186;SDS011;11259;52.146;12.844;2023-07-13T02:47:54;1.60;;;0.80;;
22186;SDS011;11259;52.146;12.844;2023-07-13T02:50:19;1.23;;;1.13;;
22186;SDS011;11259;52.146;12.844;2023-07-13T02:52:44;1.27;;;1.05;;
22186;SDS011;11259;52.146;12.844;2023-07-13T02:55:10;1.42;;;0.93;;
22186;SDS011;11259;52.146;12.844;2023-07-13T02:57:35;0.85;;;0.85;;
22186;SDS011;11259;52.146;12.844;2023-07-13T03:00:02;1.70;;;0.98;;
22186;SDS011;11259;52.146;12.844;2023-07-13T03:02:28;2.15;;;1.50;;
22186;SDS011;11259;52.146;12.844;2023-07-13T03:04:55;1.13;;;1.02;;
22186;SDS011;11259;52.146;12.844;2023-07-13T03:07:20;1.92;;;1.40;;
22186;SDS011;11259;52.146;12.844;2023-07-13T03:09:45;2.22;;;1.10;;
22186;SDS011;11259;52.146;12.844;2023-07-13T03:12:11;1.17;;;1.08;;
22186;SDS011;11259;52.146;12.844;2023-07-13T03:14:36;1.02;;;0.93;;
22186;SDS011;11259;52.146;12.844;2023-07-13T03:17:01;1.08;;;1.00;;
22186;SDS011;11259;52.146;12.844;2023-07-13T03:19:27;1.45;;;1.35;;
22186;SDS011;11259;52.146;12.844;2023-07-13T03:21:53;1.15;;;1.05;;
22186;SDS011;11259;52.146;12.844;2023-07-13T03:24:19;1.20;;;1.10;;
22186;SDS011;11259;52.146;12.844;2023-07-13T03:26:44;1.20;;;1.05;;
22186;SDS011;11259;52.146;12.844;2023-07-13T03:29:09;1.60;;;1.48;;
22186;SDS011;11259;52.146;12.844;2023-07-13T03:31:36;1.52;;;1.42;;
22186;SDS011;11259;52.146;12.844;2023-07-13T03:34:02;2.13;;;0.85;;
22186;SDS011;11259;52.146;12.844;2023-07-13T03:36:28;1.58;;;1.10;;
22186;SDS011;11259;52.146;12.844;2023-07-13T03:38:56;1.13;;;1.00;;
22186;SDS011;11259;52.146;12.844;2023-07-13T03:41:24;1.95;;;1.33;;
22186;SDS011;11259;52.146;12.844;2023-07-13T03:43:49;1.23;;;1.10;;
22186;SDS011;11259;52.146;12.844;2023-07-13T03:46:15;1.52;;;1.42;;
22186;SDS011;11259;52.146;12.844;2023-07-13T03:48:41;1.73;;;1.20;;
22186;SDS011;11259;52.146;12.844;2023-07-13T03:51:08;1.27;;;1.17;;
22186;SDS011;11259;52.146;12.844;2023-07-13T03:53:34;1.58;;;1.48;;
22186;SDS011;11259;52.146;12.844;2023-07-13T03:56:01;1.92;;;1.20;;
22186;SDS011;11259;52.146;12.844;2023-07-13T03:58:27;3.20;;;1.42;;
22186;SDS011;11259;52.146;12.844;2023-07-13T04:00:55;1.20;;;1.10;;
22186;SDS011;11259;52.146;12.844;2023-07-13T04:03:21;1.40;;;1.30;;
22186;SDS011;11259;52.146;12.844;2023-07-13T04:05:46;1.45;;;1.20;;
22186;SDS011;11259;52.146;12.844;2023-07-13T04:08:12;1.60;;;1.10;;
22186;SDS011;11259;52.146;12.844;2023-07-13T04:10:37;2.28;;;1.40;;
22186;SDS011;11259;52.146;12.844;2023-07-13T04:13:04;1.40;;;1.30;;
22186;SDS011;11259;52.146;12.844;2023-07-13T04:15:29;1.33;;;1.20;;
22186;SDS011;11259;52.146;12.844;2023-07-13T04:17:55;1.40;;;1.30;;
22186;SDS011;11259;52.146;12.844;2023-07-13T04:20:21;2.28;;;1.67;;
22186;SDS011;11259;52.146;12.844;2023-07-13T04:22:46;1.75;;;1.27;;
22186;SDS011;11259;52.146;12.844;2023-07-13T04:25:11;1.23;;;1.15;;
22186;SDS011;11259;52.146;12.844;2023-07-13T04:27:37;2.45;;;1.40;;
22186;SDS011;11259;52.146;12.844;2023-07-13T04:30:04;1.30;;;1.20;;
22186;SDS011;11259;52.146;12.844;2023-07-13T04:32:30;1.40;;;1.20;;
22186;SDS011;11259;52.146;12.844;2023-07-13T04:34:55;1.70;;;1.40;;
22186;SDS011;11259;52.146;12.844;2023-07-13T04:37:21;1.13;;;1.10;;
22186;SDS011;11259;52.146;12.844;2023-07-13T04:39:46;1.38;;;1.27;;
22186;SDS011;11259;52.146;12.844;2023-07-13T04:42:11;1.95;;;1.52;;
22186;SDS011;11259;52.146;12.844;2023-07-13T04:44:36;2.13;;;1.05;;
22186;SDS011;11259;52.146;12.844;2023-07-13T04:47:03;1.40;;;1.30;;
22186;SDS011;11259;52.146;12.844;2023-07-13T04:49:29;2.15;;;1.20;;
22186;SDS011;11259;52.146;12.844;2023-07-13T04:51:54;1.40;;;1.30;;
22186;SDS011;11259;52.146;12.844;2023-07-13T04:54:19;1.40;;;1.30;;
22186;SDS011;11259;52.146;12.844;2023-07-13T04:56:45;3.95;;;1.83;;
22186;SDS011;11259;52.146;12.844;2023-07-13T04:59:10;1.08;;;0.98;;
22186;SDS011;11259;52.146;12.844;2023-07-13T05:01:36;1.17;;;1.08;;
22186;SDS011;11259;52.146;12.844;2023-07-13T05:04:02;1.15;;;1.05;;
22186;SDS011;11259;52.146;12.844;2023-07-13T05:06:28;1.13;;;1.02;;
22186;SDS011;11259;52.146;12.844;2023-07-13T05:08:53;1.40;;;1.10;;
22186;SDS011;11259;52.146;12.844;2023-07-13T05:11:18;1.38;;;1.15;;
22186;SDS011;11259;52.146;12.844;2023-07-13T05:13:44;1.73;;;1.63;;
22186;SDS011;11259;52.146;12.844;2023-07-13T05:16:09;1.17;;;1.08;;
22186;SDS011;11259;52.146;12.844;2023-07-13T05:18:34;2.13;;;1.00;;
22186;SDS011;11259;52.146;12.844;2023-07-13T05:21:02;2.20;;;1.35;;
22186;SDS011;11259;52.146;12.844;2023-07-13T05:23:28;1.75;;;1.00;;
22186;SDS011;11259;52.146;12.844;2023-07-13T05:25:54;1.67;;;1.38;;
22186;SDS011;11259;52.146;12.844;2023-07-13T05:28:20;1.95;;;1.10;;
22186;SDS011;11259;52.146;12.844;2023-07-13T05:30:46;1.10;;;1.00;;
22186;SDS011;11259;52.146;12.844;2023-07-13T05:33:11;1.10;;;1.00;;
22186;SDS011;11259;52.146;12.844;2023-07-13T05:35:37;1.00;;;1.00;;
22186;SDS011;11259;52.146;12.844;2023-07-13T05:38:03;1.10;;;1.00;;
22186;SDS011;11259;52.146;12.844;2023-07-13T05:40:29;1.40;;;1.30;;
22186;SDS011;11259;52.146;12.844;2023-07-13T05:42:54;0.80;;;0.80;;
22186;SDS011;11259;52.146;12.844;2023-07-13T05:45:19;0.93;;;0.90;;
22186;SDS011;11259;52.146;12.844;2023-07-13T05:47:44;1.40;;;0.88;;
22186;SDS011;11259;52.146;12.844;2023-07-13T05:50:10;2.28;;;0.82;;
22186;SDS011;11259;52.146;12.844;2023-07-13T05:52:35;2.45;;;1.08;;
22186;SDS011;11259;52.146;12.844;2023-07-13T05:55:02;1.08;;;0.98;;
22186;SDS011;11259;52.146;12.844;2023-07-13T05:57:27;1.30;;;1.20;;
22186;SDS011;11259;52.146;12.844;2023-07-13T05:59:53;2.05;;;1.30;;
22186;SDS011;11259;52.146;12.844;2023-07-13T06:02:18;1.50;;;1.13;;
22186;SDS011;11259;52.146;12.844;2023-07-13T06:04:43;1.95;;;1.23;;
22186;SDS011;11259;52.146;12.844;2023-07-13T06:07:09;1.40;;;0.90;;
22186;SDS011;11259;52.146;12.844;2023-07-13T06:09:34;2.25;;;1.00;;
22186;SDS011;11259;52.146;12.844;2023-07-13T06:12:01;1.08;;;1.00;;
22186;SDS011;11259;52.146;12.844;2023-07-13T06:14:26;0.90;;;0.85;;
22186;SDS011;11259;52.146;12.844;2023-07-13T06:16:51;0.70;;;0.70;;
22186;SDS011;11259;52.146;12.844;2023-07-13T06:19:16;1.40;;;1.00;;
22186;SDS011;11259;52.146;12.844;2023-07-13T06:21:42;1.30;;;1.20;;
22186;SDS011;11259;52.146;12.844;2023-07-13T06:24:07;0.70;;;0.70;;
22186;SDS011;11259;52.146;12.844;2023-07-13T06:26:32;0.77;;;0.70;;
22186;SDS011;11259;52.146;12.844;2023-07-13T06:28:59;1.33;;;0.98;;
22186;SDS011;11259;52.146;12.844;2023-07-13T06:31:24;2.10;;;1.38;;
22186;SDS011;11259;52.146;12.844;2023-07-13T06:33:50;1.35;;;1.17;;
22186;SDS011;11259;52.146;12.844;2023-07-13T06:36:15;0.65;;;0.63;;
22186;SDS011;11259;52.146;12.844;2023-07-13T06:38:40;0.68;;;0.57;;
22186;SDS011;11259;52.146;12.844;2023-07-13T06:41:06;1.00;;;0.90;;
22186;SDS011;11259;52.146;12.844;2023-07-13T06:43:32;0.80;;;0.80;;
22186;SDS011;11259;52.146;12.844;2023-07-13T06:45:59;0.70;;;0.70;;
22186;SDS011;11259;52.146;12.844;2023-07-13T06:48:24;0.77;;;0.73;;
22186;SDS011;11259;52.146;12.844;2023-07-13T06:50:50;1.95;;;0.70;;
22186;SDS011;11259;52.146;12.844;2023-07-13T06:53:15;0.77;;;0.70;;
22186;SDS011;11259;52.146;12.844;2023-07-13T06:55:43;0.90;;;0.90;;
22186;SDS011;11259;52.146;12.844;2023-07-13T06:58:08;0.70;;;0.70;;
22186;SDS011;11259;52.146;12.844;2023-07-13T07:00:34;0.80;;;0.77;;
22186;SDS011;11259;52.146;12.844;2023-07-13T07:03:00;0.70;;;0.70;;
22186;SDS011;11259;52.146;12.844;2023-07-13T07:05:26;0.80;;;0.80;;
22186;SDS011;11259;52.146;12.844;2023-07-13T07:07:52;2.72;;;0.77;;
22186;SDS011;11259;52.146;12.844;2023-07-13T07:10:19;1.20;;;0.70;;
22186;SDS011;11259;52.146;12.844;2023-07-13T07:12:44;1.13;;;1.02;;
22186;SDS011;11259;52.146;12.844;2023-07-13T07:15:10;0.80;;;0.80;;
22186;SDS011;11259;52.146;12.844;2023-07-13T07:17:35;1.92;;;0.98;;
22186;SDS011;11259;52.146;12.844;2023-07-13T07:20:02;0.80;;;0.80;;
22186;SDS011;11259;52.146;12.844;2023-07-13T07:22:28;1.15;;;0.90;;
22186;SDS011;11259;52.146;12.844;2023-07-13T07:24:54;0.75;;;0.75;;
22186;SDS011;11259;52.146;12.844;2023-07-13T07:27:19;1.00;;;0.90;;
22186;SDS011;11259;52.146;12.844;2023-07-13T07:29:44;1.02;;;0.70;;
22186;SDS011;11259;52.146;12.844;2023-07-13T07:32:10;0.75;;;0.70;;
22186;SDS011;11259;52.146;12.844;2023-07-13T07:34:35;0.80;;;0.80;;
22186;SDS011;11259;52.146;12.844;2023-07-13T07:37:02;2.35;;;1.08;;
22186;SDS011;11259;52.146;12.844;2023-07-13T07:39:28;1.00;;;0.90;;
22186;SDS011;11259;52.146;12.844;2023-07-13T07:41:53;0.63;;;0.63;;
22186;SDS011;11259;52.146;12.844;2023-07-13T07:44:19;0.98;;;0.93;;
22186;SDS011;11259;52.146;12.844;2023-07-13T07:46:44;1.52;;;0.90;;
22186;SDS011;11259;52.146;12.844;2023-07-13T07:49:09;3.38;;;0.70;;
22186;SDS011;11259;52.146;12.844;2023-07-13T07:51:35;1.23;;;0.80;;
22186;SDS011;11259;52.146;12.844;2023-07-13T07:54:01;0.80;;;0.80;;
22186;SDS011;11259;52.146;12.844;2023-07-13T07:56:27;1.00;;;0.90;;
22186;SDS011;11259;52.146;12.844;2023-07-13T07:58:52;0.80;;;0.77;;
22186;SDS011;11259;52.146;12.844;2023-07-13T08:01:17;0.60;;;0.60;;
22186;SDS011;11259;52.146;12.844;2023-07-13T08:03:43;0.50;;;0.50;;
22186;SDS011;11259;52.146;12.844;2023-07-13T08:06:08;0.70;;;0.70;;
22186;SDS011;11259;52.146;12.844;2023-07-13T08:08:34;1.13;;;0.73;;
22186;SDS011;11259;52.146;12.844;2023-07-13T08:11:03;0.52;;;0.52;;
22186;SDS011;11259;52.146;12.844;2023-07-13T08:13:28;1.52;;;1.15;;
22186;SDS011;11259;52.146;12.844;2023-07-13T08:15:54;0.57;;;0.57;;
22186;SDS011;11259;52.146;12.844;2023-07-13T08:18:19;0.75;;;0.70;;
22186;SDS011;11259;52.146;12.844;2023-07-13T08:20:44;0.88;;;0.80;;
22186;SDS011;11259;52.146;12.844;2023-07-13T08:23:10;0.70;;;0.70;;
22186;SDS011;11259;52.146;12.844;2023-07-13T08:25:35;0.75;;;0.60;;
22186;SDS011;11259;52.146;12.844;2023-07-13T08:28:02;1.92;;;0.82;;
22186;SDS011;11259;52.146;12.844;2023-07-13T08:30:28;0.90;;;0.80;;
22186;SDS011;11259;52.146;12.844;2023-07-13T08:32:53;0.80;;;0.80;;
22186;SDS011;11259;52.146;12.844;2023-07-13T08:35:19;0.77;;;0.77;;
22186;SDS011;11259;52.146;12.844;2023-07-13T08:37:44;0.55;;;0.55;;
22186;SDS011;11259;52.146;12.844;2023-07-13T08:40:10;0.88;;;0.88;;
22186;SDS011;11259;52.146;12.844;2023-07-13T08:42:36;4.72;;;0.98;;
22186;SDS011;11259;52.146;12.844;2023-07-13T08:45:08;1.02;;;1.02;;
22186;SDS011;11259;52.146;12.844;2023-07-13T08:47:44;0.93;;;0.82;;
22186;SDS011;11259;52.146;12.844;2023-07-13T08:50:11;0.85;;;0.60;;
22186;SDS011;11259;52.146;12.844;2023-07-13T08:52:39;0.57;;;0.57;;
22186;SDS011;11259;52.146;12.844;2023-07-13T08:55:09;0.57;;;0.57;;
22186;SDS011;11259;52.146;12.844;2023-07-13T08:57:38;0.80;;;0.80;;
22186;SDS011;11259;52.146;12.844;2023-07-13T09:00:10;1.00;;;0.75;;
22186;SDS011;11259;52.146;12.844;2023-07-13T09:02:39;1.58;;;0.98;;
22186;SDS011;11259;52.146;12.844;2023-07-13T09:05:09;0.82;;;0.82;;
22186;SDS011;11259;52.146;12.844;2023-07-13T09:07:40;0.65;;;0.65;;
22186;SDS011;11259;52.146;12.844;2023-07-13T09:10:12;1.30;;;0.95;;
22186;SDS011;11259;52.146;12.844;2023-07-13T09:12:44;0.70;;;0.70;;
22186;SDS011;11259;52.146;12.844;2023-07-13T09:15:17;0.98;;;0.98;;
22186;SDS011;11259;52.146;12.844;2023-07-13T09:17:49;0.57;;;0.57;;
22186;SDS011;11259;52.146;12.844;2023-07-13T09:20:17;0.75;;;0.65;;
22186;SDS011;11259;52.146;12.844;2023-07-13T09:22:46;0.88;;;0.88;;
22186;SDS011;11259;52.146;12.844;2023-07-13T09:25:15;1.77;;;1.00;;
22186;SDS011;11259;52.146;12.844;2023-07-13T09:27:48;1.17;;;1.08;;
22186;SDS011;11259;52.146;12.844;2023-07-13T09:30:23;0.93;;;0.93;;
22186;SDS011;11259;52.146;12.844;2023-07-13T09:32:51;1.17;;;0.75;;
22186;SDS011;11259;52.146;12.844;2023-07-13T09:35:18;2.25;;;1.45;;
22186;SDS011;11259;52.146;12.844;2023-07-13T09:37:45;1.67;;;1.15;;
22186;SDS011;11259;52.146;12.844;2023-07-13T09:40:13;1.10;;;1.00;;
22186;SDS011;11259;52.146;12.844;2023-07-13T09:42:42;2.08;;;0.82;;
22186;SDS011;11259;52.146;12.844;2023-07-13T09:45:07;1.10;;;0.90;;
22186;SDS011;11259;52.146;12.844;2023-07-13T09:47:37;1.23;;;1.05;;
22186;SDS011;11259;52.146;12.844;2023-07-13T09:50:06;0.93;;;0.85;;
22186;SDS011;11259;52.146;12.844;2023-07-13T09:52:39;1.08;;;0.98;;
22186;SDS011;11259;52.146;12.844;2023-07-13T09:55:11;0.82;;;0.82;;
22186;SDS011;11259;52.146;12.844;2023-07-13T09:57:48;1.40;;;1.15;;
22186;SDS011;11259;52.146;12.844;2023-07-13T10:00:18;1.13;;;0.88;;
22186;SDS011;11259;52.146;12.844;2023-07-13T10:02:50;0.77;;;0.75;;
22186;SDS011;11259;52.146;12.844;2023-07-13T10:05:23;2.25;;;1.55;;
22186;SDS011;11259;52.146;12.844;2023-07-13T10:07:49;2.28;;;1.45;;
22186;SDS011;11259;52.146;12.844;2023-07-13T10:10:16;1.10;;;1.00;;
22186;SDS011;11259;52.146;12.844;2023-07-13T10:12:42;1.10;;;1.00;;
22186;SDS011;11259;52.146;12.844;2023-07-13T10:15:10;1.90;;;1.40;;
22186;SDS011;11259;52.146;12.844;2023-07-13T10:17:39;1.17;;;1.05;;
22186;SDS011;11259;52.146;12.844;2023-07-13T10:20:06;2.50;;;1.20;;
22186;SDS011;11259;52.146;12.844;2023-07-13T10:22:35;1.20;;;1.10;;
22186;SDS011;11259;52.146;12.844;2023-07-13T10:25:02;1.35;;;1.23;;
22186;SDS011;11259;52.146;12.844;2023-07-13T10:27:30;0.88;;;0.88;;
22186;SDS011;11259;52.146;12.844;2023-07-13T10:29:59;1.02;;;0.70;;
22186;SDS011;11259;52.146;12.844;2023-07-13T10:32:27;0.77;;;0.77;;
22186;SDS011;11259;52.146;12.844;2023-07-13T10:34:52;1.30;;;0.85;;
22186;SDS011;11259;52.146;12.844;2023-07-13T10:37:20;1.45;;;1.00;;
22186;SDS011;11259;52.146;12.844;2023-07-13T10:39:47;0.75;;;0.75;;
22186;SDS011;11259;52.146;12.844;2023-07-13T10:42:15;0.70;;;0.70;;
22186;SDS011;11259;52.146;12.844;2023-07-13T10:44:46;0.77;;;0.77;;
22186;SDS011;11259;52.146;12.844;2023-07-13T10:47:13;0.75;;;0.73;;
22186;SDS011;11259;52.146;12.844;2023-07-13T10:49:39;1.13;;;0.75;;
22186;SDS011;11259;52.146;12.844;2023-07-13T10:52:05;0.90;;;0.80;;
22186;SDS011;11259;52.146;12.844;2023-07-13T10:54:33;1.38;;;0.90;;
22186;SDS011;11259;52.146;12.844;2023-07-13T10:57:15;0.70;;;0.70;;
22186;SDS011;11259;52.146;12.844;2023-07-13T10:59:43;1.10;;;1.00;;
22186;SDS011;11259;52.146;12.844;2023-07-13T11:02:10;0.63;;;0.63;;
22186;SDS011;11259;52.146;12.844;2023-07-13T11:04:41;0.52;;;0.52;;
22186;SDS011;11259;52.146;12.844;2023-07-13T11:07:10;0.80;;;0.75;;
22186;SDS011;11259;52.146;12.844;2023-07-13T11:09:43;0.73;;;0.65;;
22186;SDS011;11259;52.146;12.844;2023-07-13T11:12:09;2.38;;;0.77;;
22186;SDS011;11259;52.146;12.844;2023-07-13T11:15:00;0.82;;;0.57;;
22186;SDS011;11259;52.146;12.844;2023-07-13T11:17:37;0.63;;;0.63;;
22186;SDS011;11259;52.146;12.844;2023-07-13T11:20:21;0.57;;;0.57;;
22186;SDS011;11259;52.146;12.844;2023-07-13T11:22:49;1.75;;;0.70;;
22186;SDS011;11259;52.146;12.844;2023-07-13T11:25:26;1.35;;;0.70;;
22186;SDS011;11259;52.146;12.844;2023-07-13T11:28:03;0.57;;;0.57;;
22186;SDS011;11259;52.146;12.844;2023-07-13T11:30:32;0.60;;;0.60;;
22186;SDS011;11259;52.146;12.844;2023-07-13T11:33:11;8.07;;;0.85;;
22186;SDS011;11259;52.146;12.844;2023-07-13T11:35:41;0.40;;;0.40;;
22186;SDS011;11259;52.146;12.844;2023-07-13T11:38:12;0.70;;;0.70;;
22186;SDS011;11259;52.146;12.844;2023-07-13T11:40:41;0.75;;;0.75;;
22186;SDS011;11259;52.146;12.844;2023-07-13T11:43:11;0.88;;;0.88;;
22186;SDS011;11259;52.146;12.844;2023-07-13T11:45:37;1.10;;;0.98;;
22186;SDS011;11259;52.146;12.844;2023-07-13T11:48:03;0.93;;;0.90;;
22186;SDS011;11259;52.146;12.844;2023-07-13T11:50:29;0.82;;;0.82;;
22186;SDS011;11259;52.146;12.844;2023-07-13T11:52:54;0.75;;;0.63;;
22186;SDS011;11259;52.146;12.844;2023-07-13T11:55:20;0.75;;;0.60;;
22186;SDS011;11259;52.146;12.844;2023-07-13T11:57:49;1.25;;;0.70;;
22186;SDS011;11259;52.146;12.844;2023-07-13T12:00:17;0.57;;;0.57;;
22186;SDS011;11259;52.146;12.844;2023-07-13T12:02:44;0.50;;;0.50;;
22186;SDS011;11259;52.146;12.844;2023-07-13T12:05:11;0.63;;;0.63;;
22186;SDS011;11259;52.146;12.844;2023-07-13T12:07:39;1.48;;;0.50;;
22186;SDS011;11259;52.146;12.844;2023-07-13T12:10:13;0.85;;;0.85;;
22186;SDS011;11259;52.146;12.844;2023-07-13T12:12:46;0.80;;;0.60;;
22186;SDS011;11259;52.146;12.844;2023-07-13T12:15:13;2.53;;;0.70;;
22186;SDS011;11259;52.146;12.844;2023-07-13T12:17:39;0.55;;;0.55;;
22186;SDS011;11259;52.146;12.844;2023-07-13T12:20:11;0.55;;;0.55;;
22186;SDS011;11259;52.146;12.844;2023-07-13T12:22:45;0.63;;;0.60;;
22186;SDS011;11259;52.146;12.844;2023-07-13T12:25:11;0.50;;;0.50;;
22186;SDS011;11259;52.146;12.844;2023-07-13T12:27:37;0.70;;;0.70;;
22186;SDS011;11259;52.146;12.844;2023-07-13T12:30:23;0.40;;;0.40;;
22186;SDS011;11259;52.146;12.844;2023-07-13T12:32:57;0.70;;;0.70;;
22186;SDS011;11259;52.146;12.844;2023-07-13T12:35:24;2.20;;;0.80;;
22186;SDS011;11259;52.146;12.844;2023-07-13T12:37:50;0.50;;;0.50;;
22186;SDS011;11259;52.146;12.844;2023-07-13T12:40:16;0.90;;;0.70;;
22186;SDS011;11259;52.146;12.844;2023-07-13T12:42:45;0.90;;;0.70;;
22186;SDS011;11259;52.146;12.844;2023-07-13T12:45:16;0.60;;;0.60;;
22186;SDS011;11259;52.146;12.844;2023-07-13T12:47:43;0.73;;;0.73;;
22186;SDS011;11259;52.146;12.844;2023-07-13T12:50:14;0.52;;;0.50;;
22186;SDS011;11259;52.146;12.844;2023-07-13T12:52:41;1.38;;;0.70;;
22186;SDS011;11259;52.146;12.844;2023-07-13T12:55:11;0.47;;;0.47;;
22186;SDS011;11259;52.146;12.844;2023-07-13T12:57:38;0.55;;;0.55;;
22186;SDS011;11259;52.146;12.844;2023-07-13T13:00:06;0.75;;;0.75;;
22186;SDS011;11259;52.146;12.844;2023-07-13T13:02:46;0.60;;;0.60;;
22186;SDS011;11259;52.146;12.844;2023-07-13T13:05:14;0.73;;;0.70;;
22186;SDS011;11259;52.146;12.844;2023-07-13T13:07:39;3.35;;;1.25;;
22186;SDS011;11259;52.146;12.844;2023-07-13T13:10:10;0.75;;;0.75;;
22186;SDS011;11259;52.146;12.844;2023-07-13T13:12:36;0.60;;;0.60;;
22186;SDS011;11259;52.146;12.844;2023-07-13T13:15:01;0.65;;;0.65;;
22186;SDS011;11259;52.146;12.844;2023-07-13T13:17:29;3.33;;;0.90;;
22186;SDS011;11259;52.146;12.844;2023-07-13T13:19:55;0.60;;;0.60;;
22186;SDS011;11259;52.146;12.844;2023-07-13T13:22:21;0.80;;;0.55;;
22186;SDS011;11259;52.146;12.844;2023-07-13T13:24:46;0.60;;;0.60;;
22186;SDS011;11259;52.146;12.844;2023-07-13T13:27:14;0.50;;;0.50;;
22186;SDS011;11259;52.146;12.844;2023-07-13T13:29:40;0.40;;;0.40;;
22186;SDS011;11259;52.146;12.844;2023-07-13T13:32:09;2.13;;;0.55;;
22186;SDS011;11259;52.146;12.844;2023-07-13T13:34:36;0.40;;;0.40;;
22186;SDS011;11259;52.146;12.844;2023-07-13T13:37:02;1.08;;;0.80;;
22186;SDS011;11259;52.146;12.844;2023-07-13T13:39:29;0.57;;;0.57;;
22186;SDS011;11259;52.146;12.844;2023-07-13T13:41:56;0.68;;;0.60;;
22186;SDS011;11259;52.146;12.844;2023-07-13T13:44:22;0.60;;;0.60;;
22186;SDS011;11259;52.146;12.844;2023-07-13T13:46:48;0.75;;;0.50;;
22186;SDS011;11259;52.146;12.844;2023-07-13T13:49:15;0.68;;;0.68;;
22186;SDS011;11259;52.146;12.844;2023-07-13T13:51:44;1.77;;;0.98;;
22186;SDS011;11259;52.146;12.844;2023-07-13T13:54:10;0.40;;;0.40;;
22186;SDS011;11259;52.146;12.844;2023-07-13T13:56:36;0.68;;;0.40;;
22186;SDS011;11259;52.146;12.844;2023-07-13T13:59:02;0.82;;;0.68;;
22186;SDS011;11259;52.146;12.844;2023-07-13T14:01:27;0.95;;;0.55;;
22186;SDS011;11259;52.146;12.844;2023-07-13T14:03:53;1.65;;;0.68;;
22186;SDS011;11259;52.146;12.844;2023-07-13T14:06:18;0.93;;;0.38;;
22186;SDS011;11259;52.146;12.844;2023-07-13T14:08:45;1.85;;;0.82;;
22186;SDS011;11259;52.146;12.844;2023-07-13T14:11:11;0.35;;;0.35;;
22186;SDS011;11259;52.146;12.844;2023-07-13T14:13:38;0.35;;;0.35;;
22186;SDS011;11259;52.146;12.844;2023-07-13T14:16:09;1.05;;;0.50;;
22186;SDS011;11259;52.146;12.844;2023-07-13T14:18:35;0.50;;;0.50;;
22186;SDS011;11259;52.146;12.844;2023-07-13T14:21:00;0.45;;;0.40;;
22186;SDS011;11259;52.146;12.844;2023-07-13T14:23:25;0.40;;;0.40;;
22186;SDS011;11259;52.146;12.844;2023-07-13T14:25:52;1.58;;;0.57;;
22186;SDS011;11259;52.146;12.844;2023-07-13T14:28:19;6.90;;;0.85;;
22186;SDS011;11259;52.146;12.844;2023-07-13T14:30:46;1.95;;;0.60;;
22186;SDS011;11259;52.146;12.844;2023-07-13T14:33:12;0.30;;;0.30;;
22186;SDS011;11259;52.146;12.844;2023-07-13T14:35:37;0.82;;;0.40;;